Time;durP1;ratioP1;P1;durP2;ratioP2;P2;SDS_P1;SDS_P2;PMS_P1;PMS_P2;Temp;Humidity;BMP_temperature;BMP_pressure;BME280_temperature;BME280_humidity;BME280_pressure;Samples;Min_cycle;Max_cycle;Signal;HPM_P1;HPM_P2
2021/01/27 00:02:10;;;;;;;3.20;2.90;;;-2.20;99.90;;;;;;5092482;28;20437;-72
2021/01/27 00:04:37;;;;;;;4.90;2.50;;;-2.30;99.90;;;;;;5092125;28;20460;-72
2021/01/27 00:07:04;;;;;;;4.43;2.87;;;-2.30;99.90;;;;;;5092197;28;20451;-73
2021/01/27 00:09:31;;;;;;;5.20;3.10;;;-2.30;99.90;;;;;;5092287;28;20509;-72
2021/01/27 00:11:59;;;;;;;4.60;2.93;;;-2.30;99.90;;;;;;5092000;28;20444;-72
2021/01/27 00:14:26;;;;;;;3.07;2.67;;;-2.30;99.90;;;;;;5072794;28;20454;-72
2021/01/27 00:16:54;;;;;;;2.60;2.40;;;-2.30;99.90;;;;;;5072109;28;20436;-72
2021/01/27 00:19:20;;;;;;;3.80;2.97;;;-2.30;99.90;;;;;;5071907;28;20907;-72
2021/01/27 00:21:48;;;;;;;3.47;2.53;;;-2.30;99.90;;;;;;5071139;28;20503;-72
2021/01/27 00:24:16;;;;;;;3.00;2.33;;;-2.30;99.90;;;;;;5071931;28;20469;-72
2021/01/27 00:26:42;;;;;;;3.77;2.53;;;-2.30;99.90;;;;;;5072162;28;20441;-72
2021/01/27 00:29:09;;;;;;;2.60;2.40;;;-2.40;99.90;;;;;;5071532;28;20434;-72
2021/01/27 00:31:36;;;;;;;4.60;3.30;;;-2.40;99.90;;;;;;5071695;28;20833;-72
2021/01/27 00:34:03;;;;;;;2.70;1.93;;;-2.40;99.90;;;;;;5071486;28;20526;-72
2021/01/27 00:36:29;;;;;;;2.93;2.50;;;-2.50;99.90;;;;;;5071515;28;20433;-72
2021/01/27 00:38:57;;;;;;;2.93;2.20;;;-2.50;99.90;;;;;;5071509;28;20426;-72
2021/01/27 00:41:23;;;;;;;6.97;3.53;;;-2.50;99.90;;;;;;5071248;28;20488;-72
2021/01/27 00:43:50;;;;;;;3.50;2.67;;;-2.50;99.90;;;;;;5071064;28;20919;-72
2021/01/27 00:46:17;;;;;;;5.13;2.60;;;-2.40;99.90;;;;;;5070918;28;20449;-72
2021/01/27 00:48:43;;;;;;;3.60;2.57;;;-2.40;99.90;;;;;;5071518;28;20988;-72
2021/01/27 00:51:10;;;;;;;3.43;3.00;;;-2.40;99.90;;;;;;5071332;28;20434;-72
2021/01/27 00:53:36;;;;;;;3.10;2.47;;;-2.40;99.90;;;;;;5071069;28;20426;-72
2021/01/27 00:56:05;;;;;;;7.73;2.83;;;-2.30;99.90;;;;;;5071330;28;20426;-72
2021/01/27 00:58:31;;;;;;;3.00;2.30;;;-2.20;99.90;;;;;;5070700;28;20422;-72
2021/01/27 01:00:58;;;;;;;3.30;2.50;;;-2.20;99.90;;;;;;5070918;28;20461;-72
2021/01/27 01:03:25;;;;;;;3.23;2.93;;;-2.20;99.90;;;;;;5071042;28;20418;-72
2021/01/27 01:05:51;;;;;;;2.33;2.13;;;-2.20;99.90;;;;;;5070896;28;20446;-70
2021/01/27 01:08:19;;;;;;;3.53;3.07;;;-2.10;99.90;;;;;;5071086;28;20422;-70
2021/01/27 01:10:49;;;;;;;3.40;2.70;;;-2.10;99.90;;;;;;5070445;28;20445;-70
2021/01/27 01:13:19;;;;;;;4.20;2.63;;;-2.10;99.90;;;;;;5070667;28;20483;-70
2021/01/27 01:15:46;;;;;;;3.90;2.67;;;-2.10;99.90;;;;;;5070789;28;20438;-70
2021/01/27 01:18:13;;;;;;;2.90;2.70;;;-2.00;99.90;;;;;;5071024;28;20449;-70
2021/01/27 01:20:40;;;;;;;3.87;2.27;;;-2.10;99.90;;;;;;5070809;28;20480;-70
2021/01/27 01:23:08;;;;;;;5.33;2.33;;;-2.00;99.90;;;;;;5070922;28;20458;-70
2021/01/27 01:25:36;;;;;;;3.57;2.90;;;-2.10;99.90;;;;;;5070819;28;20800;-70
2021/01/27 01:28:05;;;;;;;6.40;2.33;;;-2.10;99.90;;;;;;5070603;28;20429;-70
2021/01/27 01:30:34;;;;;;;3.00;2.60;;;-2.10;99.90;;;;;;5070456;28;20441;-70
2021/01/27 01:33:04;;;;;;;2.67;2.47;;;-2.10;99.90;;;;;;5087858;28;20990;-70
2021/01/27 01:35:31;;;;;;;3.30;2.87;;;-2.10;99.90;;;;;;5090856;28;20451;-70
2021/01/27 01:37:57;;;;;;;3.23;2.20;;;-2.00;99.90;;;;;;5090959;28;20428;-70
2021/01/27 01:40:26;;;;;;;2.83;2.03;;;-2.00;99.90;;;;;;5090437;28;20471;-70
2021/01/27 01:43:08;;;;;;;5.03;2.50;;;-2.00;99.90;;;;;;5084080;28;20803;-70
2021/01/27 01:45:38;;;;;;;2.23;2.03;;;-2.10;99.90;;;;;;5070545;28;21170;-70
2021/01/27 01:48:14;;;;;;;2.67;2.40;;;-2.00;99.90;;;;;;5070718;28;20429;-70
2021/01/27 01:50:42;;;;;;;3.40;2.30;;;-2.00;99.90;;;;;;5070396;28;20421;-70
2021/01/27 01:53:10;;;;;;;4.37;2.80;;;-2.00;99.90;;;;;;5070720;28;20422;-70
2021/01/27 01:55:37;;;;;;;2.60;2.17;;;-2.10;99.90;;;;;;5070194;28;20507;-71
2021/01/27 01:58:04;;;;;;;7.80;2.30;;;-2.20;99.90;;;;;;5070175;28;20422;-70
2021/01/27 02:00:33;;;;;;;2.90;2.30;;;-2.20;99.90;;;;;;5070331;28;20826;-70
2021/01/27 02:03:02;;;;;;;2.70;2.47;;;-2.20;99.90;;;;;;5070388;28;20949;-70
2021/01/27 02:05:29;;;;;;;3.27;2.93;;;-2.10;99.90;;;;;;5070324;28;20975;-70
2021/01/27 02:07:58;;;;;;;2.77;2.57;;;-2.20;99.90;;;;;;5070400;28;20425;-70
2021/01/27 02:10:25;;;;;;;9.63;2.63;;;-2.10;99.90;;;;;;5070127;28;20437;-70
2021/01/27 02:13:05;;;;;;;6.50;2.23;;;-2.00;99.90;;;;;;5070405;28;20433;-70
2021/01/27 02:15:51;;;;;;;4.40;2.87;;;-2.00;99.90;;;;;;5070386;28;20442;-70
2021/01/27 02:18:27;;;;;;;3.87;2.70;;;-2.10;99.90;;;;;;5069949;28;20426;-70
2021/01/27 02:21:28;;;;;;;6.40;2.40;;;-2.10;99.90;;;;;;5070084;28;20469;-70
2021/01/27 02:24:30;;;;;;;5.03;2.90;;;-2.10;99.90;;;;;;5069678;28;20452;-70
2021/01/27 02:27:07;;;;;;;3.57;2.27;;;-2.10;99.90;;;;;;5074001;28;20416;-70
2021/01/27 02:29:56;;;;;;;4.60;2.80;;;-2.00;99.90;;;;;;5073483;28;20918;-70
2021/01/27 02:32:51;;;;;;;4.20;2.50;;;-2.10;99.90;;;;;;5073707;28;20414;-70
2021/01/27 02:35:25;;;;;;;2.70;2.40;;;-2.10;99.90;;;;;;5084444;28;20452;-70
2021/01/27 02:37:59;;;;;;;4.83;2.73;;;-2.10;99.90;;;;;;5094115;28;20421;-70
2021/01/27 02:40:31;;;;;;;4.60;2.60;;;-2.10;99.90;;;;;;5093870;28;20468;-70
2021/01/27 02:43:07;;;;;;;4.30;2.77;;;-2.20;99.90;;;;;;5086502;28;20451;-70
2021/01/27 02:45:36;;;;;;;2.73;2.37;;;-2.20;99.90;;;;;;5073305;28;20457;-70
2021/01/27 02:48:09;;;;;;;5.83;2.80;;;-2.30;99.90;;;;;;5073659;28;20491;-70
2021/01/27 02:50:41;;;;;;;2.90;2.43;;;-2.30;99.90;;;;;;5073445;28;20434;-70
2021/01/27 02:53:15;;;;;;;5.87;2.87;;;-2.30;99.90;;;;;;5073605;28;20418;-71
2021/01/27 02:55:49;;;;;;;5.87;2.93;;;-2.30;99.90;;;;;;5073385;28;20826;-70
2021/01/27 02:58:21;;;;;;;3.57;2.83;;;-2.40;99.90;;;;;;5073193;28;20432;-70
2021/01/27 03:00:56;;;;;;;3.13;2.40;;;-2.40;99.90;;;;;;5072526;28;20473;-70
2021/01/27 03:03:28;;;;;;;4.07;2.23;;;-2.40;99.90;;;;;;5073416;28;20434;-71
2021/01/27 03:06:00;;;;;;;5.33;2.77;;;-2.40;99.90;;;;;;5073414;28;20533;-70
2021/01/27 03:08:32;;;;;;;3.80;2.10;;;-2.40;99.90;;;;;;5073146;28;20911;-70
2021/01/27 03:11:05;;;;;;;4.53;2.60;;;-2.50;99.90;;;;;;5073074;28;20427;-70
2021/01/27 03:13:34;;;;;;;4.27;3.00;;;-2.60;99.90;;;;;;5072671;28;20438;-70
2021/01/27 03:16:12;;;;;;;4.83;3.10;;;-2.70;99.90;;;;;;5073196;28;20946;-70
2021/01/27 03:18:44;;;;;;;6.57;3.30;;;-2.80;99.90;;;;;;5073064;28;20436;-70
2021/01/27 03:21:16;;;;;;;4.30;2.60;;;-2.80;99.90;;;;;;5073045;28;20469;-71
2021/01/27 03:23:48;;;;;;;3.63;3.33;;;-2.90;99.90;;;;;;5072953;28;20413;-70
2021/01/27 03:26:21;;;;;;;3.17;2.50;;;-2.90;99.90;;;;;;5072961;28;20449;-70
2021/01/27 03:28:54;;;;;;;3.03;2.73;;;-3.00;99.90;;;;;;5072329;28;20426;-70
2021/01/27 03:31:21;;;;;;;6.20;3.03;;;-3.00;99.90;;;;;;5072707;28;20430;-70
2021/01/27 03:33:53;;;;;;;2.83;2.50;;;-3.00;99.90;;;;;;5072298;28;20503;-70
2021/01/27 03:36:21;;;;;;;2.80;2.40;;;-3.00;99.90;;;;;;5072785;28;20934;-70
2021/01/27 03:38:51;;;;;;;2.50;2.00;;;-3.00;99.90;;;;;;5072392;28;20776;-70
2021/01/27 03:41:22;;;;;;;7.47;2.73;;;-3.10;99.90;;;;;;5072359;28;20466;-72
2021/01/27 03:44:01;;;;;;;3.13;2.50;;;-3.20;99.90;;;;;;5073133;28;20430;-70
2021/01/27 03:46:34;;;;;;;7.40;3.50;;;-3.30;99.90;;;;;;5072619;28;20486;-70
2021/01/27 03:49:05;;;;;;;4.30;2.70;;;-3.30;99.90;;;;;;5072582;28;20418;-70
2021/01/27 03:51:37;;;;;;;4.13;3.10;;;-3.20;99.90;;;;;;5072268;28;20636;-70
2021/01/27 03:54:08;;;;;;;4.90;3.30;;;-3.10;99.90;;;;;;5071864;28;20457;-70
2021/01/27 03:56:50;;;;;;;6.50;3.17;;;-3.10;99.90;;;;;;5071882;28;20433;-70
2021/01/27 03:59:17;;;;;;;4.23;2.80;;;-3.00;99.90;;;;;;5072126;28;20450;-70
2021/01/27 04:01:49;;;;;;;3.10;2.80;;;-3.00;99.90;;;;;;5072031;28;20815;-70
2021/01/27 04:04:15;;;;;;;4.43;2.47;;;-3.00;99.90;;;;;;5072084;28;20446;-70
2021/01/27 04:06:43;;;;;;;3.03;2.70;;;-3.00;99.90;;;;;;5071851;28;20520;-70
2021/01/27 04:09:10;;;;;;;4.00;3.70;;;-2.90;99.90;;;;;;5072185;28;20480;-70
2021/01/27 04:11:37;;;;;;;6.30;3.30;;;-2.90;99.90;;;;;;5071987;28;20483;-70
2021/01/27 04:14:05;;;;;;;2.43;2.23;;;-2.90;99.90;;;;;;5071425;28;20457;-70
2021/01/27 04:16:32;;;;;;;5.53;2.80;;;-3.00;99.90;;;;;;5071927;28;20430;-70
2021/01/27 04:19:00;;;;;;;8.20;3.00;;;-3.00;99.90;;;;;;5071803;28;20464;-70
2021/01/27 04:21:27;;;;;;;5.03;3.43;;;-3.00;99.90;;;;;;5071386;28;20531;-70
2021/01/27 04:23:54;;;;;;;7.20;3.03;;;-3.00;99.90;;;;;;5071685;28;20426;-70
2021/01/27 04:26:21;;;;;;;7.20;3.00;;;-3.00;99.90;;;;;;5071151;28;20421;-70
2021/01/27 04:28:49;;;;;;;5.47;3.17;;;-3.10;99.90;;;;;;5071605;28;20445;-70
2021/01/27 04:31:15;;;;;;;4.70;3.30;;;-3.10;99.90;;;;;;5071535;28;20433;-70
2021/01/27 04:33:42;;;;;;;3.93;3.53;;;-3.00;99.90;;;;;;5071471;28;20430;-70
2021/01/27 04:36:09;;;;;;;4.60;3.67;;;-3.10;99.90;;;;;;5071491;28;20429;-70
2021/01/27 04:38:36;;;;;;;3.70;3.07;;;-3.00;99.90;;;;;;5071429;28;20437;-70
2021/01/27 04:41:04;;;;;;;3.43;2.90;;;-3.00;99.90;;;;;;5071223;28;20465;-70
2021/01/27 04:43:33;;;;;;;3.60;2.90;;;-3.10;99.90;;;;;;5072009;28;20918;-70
2021/01/27 04:46:04;;;;;;;4.03;2.60;;;-2.90;99.90;;;;;;5070624;28;20489;-70
2021/01/27 04:48:40;;;;;;;3.00;2.70;;;-2.90;99.90;;;;;;5071274;28;20484;-70
2021/01/27 04:51:13;;;;;;;4.57;2.90;;;-2.90;99.90;;;;;;5071066;28;20899;-70
2021/01/27 04:53:50;;;;;;;3.50;3.13;;;-3.00;99.90;;;;;;5071205;28;20445;-70
2021/01/27 04:56:52;;;;;;;7.00;3.30;;;-3.00;99.90;;;;;;5071181;28;20429;-70
2021/01/27 04:59:31;;;;;;;2.90;2.60;;;-2.90;99.90;;;;;;5070924;28;20441;-69
2021/01/27 05:02:16;;;;;;;3.13;2.90;;;-2.90;99.90;;;;;;5070832;28;20510;-70
2021/01/27 05:05:02;;;;;;;2.87;2.57;;;-2.90;99.90;;;;;;5071188;28;20491;-70
2021/01/27 05:07:34;;;;;;;2.40;2.17;;;-2.90;99.90;;;;;;5071046;28;20426;-70
2021/01/27 05:10:04;;;;;;;3.93;2.43;;;-3.00;99.90;;;;;;5071107;28;20930;-70
2021/01/27 05:12:40;;;;;;;3.67;2.60;;;-3.00;99.90;;;;;;5070890;28;20458;-69
2021/01/27 05:15:08;;;;;;;2.90;2.70;;;-3.00;99.90;;;;;;5070564;28;20461;-71
2021/01/27 05:17:37;;;;;;;5.83;2.77;;;-3.00;99.90;;;;;;5070913;28;20479;-71
2021/01/27 05:20:05;;;;;;;3.63;2.67;;;-3.00;99.90;;;;;;5070599;28;20429;-71
2021/01/27 05:22:32;;;;;;;5.20;2.83;;;-3.00;99.90;;;;;;5070160;28;20479;-72
2021/01/27 05:24:59;;;;;;;2.97;2.60;;;-2.90;99.90;;;;;;5070917;28;20449;-72
2021/01/27 05:27:32;;;;;;;4.43;2.90;;;-2.90;99.90;;;;;;5070921;28;20475;-72
2021/01/27 05:30:07;;;;;;;3.40;2.97;;;-2.90;99.90;;;;;;5070907;28;20421;-72
2021/01/27 05:32:48;;;;;;;3.80;2.10;;;-2.90;99.90;;;;;;5070731;28;20418;-72
2021/01/27 05:35:31;;;;;;;2.40;2.20;;;-2.90;99.90;;;;;;5070849;28;20958;-72
2021/01/27 05:37:58;;;;;;;4.20;3.03;;;-2.90;99.90;;;;;;5070774;28;20421;-72
2021/01/27 05:40:31;;;;;;;3.57;2.50;;;-2.90;99.90;;;;;;5070061;28;20506;-72
2021/01/27 05:42:59;;;;;;;7.53;2.50;;;-2.90;99.90;;;;;;5070121;28;20453;-72
2021/01/27 05:45:34;;;;;;;3.20;2.30;;;-2.90;99.90;;;;;;5070529;28;20453;-71
2021/01/27 05:48:26;;;;;;;3.57;2.33;;;-2.80;99.90;;;;;;5070607;28;20496;-72
2021/01/27 05:50:54;;;;;;;2.20;1.83;;;-2.80;99.90;;;;;;5070727;28;20446;-72
2021/01/27 05:53:23;;;;;;;2.93;2.60;;;-2.90;99.90;;;;;;5070663;28;20430;-72
2021/01/27 05:56:00;;;;;;;4.80;2.90;;;-2.90;99.90;;;;;;5070542;28;20441;-71
2021/01/27 05:58:29;;;;;;;3.20;1.90;;;-2.80;99.90;;;;;;5072651;28;20824;-72
2021/01/27 06:01:14;;;;;;;2.40;2.03;;;-2.80;99.90;;;;;;5074445;28;20827;-71
2021/01/27 06:03:50;;;;;;;4.90;3.00;;;-2.90;99.90;;;;;;5074524;28;20903;-72
2021/01/27 06:06:17;;;;;;;2.53;2.30;;;-2.90;99.90;;;;;;5074765;28;20414;-72
2021/01/27 06:08:53;;;;;;;3.30;2.47;;;-2.90;99.90;;;;;;5074405;28;20433;-72
2021/01/27 06:11:20;;;;;;;3.03;2.00;;;-2.90;99.90;;;;;;5074297;28;20425;-72
2021/01/27 06:13:48;;;;;;;11.77;2.23;;;-3.00;99.90;;;;;;5074118;28;20768;-71
2021/01/27 06:16:21;;;;;;;3.60;2.33;;;-2.90;99.90;;;;;;5074305;28;20513;-72
2021/01/27 06:18:51;;;;;;;2.60;2.27;;;-2.90;99.90;;;;;;5074201;28;20429;-71
2021/01/27 06:21:34;;;;;;;10.90;2.97;;;-2.90;99.90;;;;;;5074048;28;20465;-72
2021/01/27 06:24:31;;;;;;;3.40;2.40;;;-2.80;99.90;;;;;;5073963;28;20462;-72
2021/01/27 06:27:33;;;;;;;6.10;3.33;;;-2.80;99.90;;;;;;5074347;28;20438;-73
2021/01/27 06:30:21;;;;;;;4.07;2.70;;;-2.80;99.90;;;;;;5073666;28;20760;-71
2021/01/27 06:33:01;;;;;;;3.40;2.93;;;-2.80;99.90;;;;;;5073877;28;20406;-72
2021/01/27 06:35:39;;;;;;;6.40;3.17;;;-2.80;99.90;;;;;;5073945;28;20463;-71
2021/01/27 06:38:23;;;;;;;3.90;3.07;;;-2.80;99.90;;;;;;5073877;28;20417;-71
2021/01/27 06:41:02;;;;;;;6.20;3.80;;;-2.80;99.90;;;;;;5073512;28;20873;-68
2021/01/27 06:44:02;;;;;;;5.60;3.90;;;-2.80;99.90;;;;;;5073515;28;20448;-69
2021/01/27 06:46:58;;;;;;;6.03;3.80;;;-2.60;99.90;;;;;;5071145;28;20483;-69
2021/01/27 06:49:51;;;;;;;5.80;2.83;;;-2.70;99.90;;;;;;5044828;28;20463;-69
2021/01/27 06:52:28;;;;;;;4.03;3.50;;;-2.70;99.90;;;;;;5073496;28;20818;-69
2021/01/27 06:55:11;;;;;;;5.40;3.90;;;-2.70;99.90;;;;;;5073438;28;20441;-67
2021/01/27 06:57:55;;;;;;;5.33;3.30;;;-2.80;99.90;;;;;;5073378;28;21159;-67
2021/01/27 07:00:38;;;;;;;14.63;6.20;;;-2.80;99.90;;;;;;5072881;28;20802;-67
2021/01/27 07:03:42;;;;;;;4.20;3.20;;;-2.90;99.90;;;;;;5073347;28;20446;-67
2021/01/27 07:06:48;;;;;;;4.30;2.87;;;-2.90;99.90;;;;;;5073421;28;20543;-67
2021/01/27 07:09:37;;;;;;;5.90;3.00;;;-2.90;99.90;;;;;;5072654;28;20491;-66
2021/01/27 07:12:11;;;;;;;6.00;3.80;;;-2.90;99.90;;;;;;5072909;28;20934;-66
2021/01/27 07:14:50;;;;;;;3.50;2.73;;;-2.90;99.90;;;;;;5072805;28;20441;-66
2021/01/27 07:17:31;;;;;;;4.83;3.67;;;-2.80;99.90;;;;;;5073234;28;20448;-67
2021/01/27 07:20:22;;;;;;;6.13;3.20;;;-2.80;99.90;;;;;;5073277;28;20426;-70
2021/01/27 07:22:59;;;;;;;3.47;2.60;;;-2.80;99.90;;;;;;5073232;28;20452;-69
2021/01/27 07:25:42;;;;;;;2.60;2.40;;;-2.80;99.90;;;;;;5073127;28;20969;-69
2021/01/27 07:28:14;;;;;;;5.17;3.50;;;-2.90;99.90;;;;;;5053250;28;20411;-71
2021/01/27 07:30:46;;;;;;;20.07;10.80;;;-2.80;99.90;;;;;;5052954;28;20434;-69
2021/01/27 07:33:21;;;;;;;10.90;6.73;;;-2.80;99.90;;;;;;5076068;28;20491;-70
2021/01/27 07:35:59;;;;;;;6.67;3.73;;;-2.80;99.90;;;;;;5072661;28;21009;-69
2021/01/27 07:38:33;;;;;;;4.33;3.00;;;-2.80;99.90;;;;;;5072977;28;20438;-70
2021/01/27 07:41:05;;;;;;;3.40;3.10;;;-2.70;99.90;;;;;;5071948;28;20481;-70
2021/01/27 07:43:39;;;;;;;5.63;2.53;;;-2.60;99.90;;;;;;5072472;28;20507;-69
2021/01/27 07:46:06;;;;;;;5.97;3.20;;;-2.60;99.90;;;;;;5072592;28;20426;-69
2021/01/27 07:48:39;;;;;;;3.70;2.73;;;-2.60;99.90;;;;;;5071732;28;20583;-69
2021/01/27 07:51:12;;;;;;;7.87;2.97;;;-2.60;99.90;;;;;;5072424;28;20787;-70
2021/01/27 07:53:44;;;;;;;2.80;2.60;;;-2.60;99.90;;;;;;5080569;28;20429;-69
2021/01/27 07:56:16;;;;;;;4.23;2.63;;;-2.60;99.90;;;;;;5080759;28;20445;-69
2021/01/27 07:58:49;;;;;;;2.80;2.40;;;-2.50;99.90;;;;;;5081707;28;20947;-69
2021/01/27 08:01:20;;;;;;;3.20;2.90;;;-2.50;99.90;;;;;;5079387;28;20484;-70
2021/01/27 08:03:57;;;;;;;2.77;2.57;;;-2.50;99.90;;;;;;5079464;28;20497;-69
2021/01/27 08:06:29;;;;;;;2.90;2.70;;;-2.50;99.90;;;;;;5077203;28;20436;-69
2021/01/27 08:09:00;;;;;;;3.70;2.60;;;-2.40;99.90;;;;;;5081483;28;20438;-69
2021/01/27 08:11:33;;;;;;;3.20;2.70;;;-2.40;99.90;;;;;;5081693;28;20433;-69
2021/01/27 08:14:01;;;;;;;4.73;2.63;;;-2.40;99.90;;;;;;5079638;28;20449;-69
2021/01/27 08:16:35;;;;;;;3.43;2.20;;;-2.40;99.90;;;;;;5061269;28;20436;-69
2021/01/27 08:19:26;;;;;;;1.83;1.73;;;-2.30;99.90;;;;;;5077258;28;20816;-69
2021/01/27 08:22:05;;;;;;;3.60;2.00;;;-2.30;99.90;;;;;;5070870;28;20469;-69
2021/01/27 08:24:56;;;;;;;2.50;2.10;;;-2.30;99.90;;;;;;5085769;28;20852;-69
2021/01/27 08:27:30;;;;;;;4.93;2.20;;;-2.30;99.90;;;;;;5074339;28;20442;-69
2021/01/27 08:30:22;;;;;;;4.70;2.47;;;-2.30;99.90;;;;;;5071952;28;20430;-69
2021/01/27 08:32:49;;;;;;;2.20;2.10;;;-2.30;99.90;;;;;;5070706;28;20950;-70
2021/01/27 08:35:57;;;;;;;1.90;1.80;;;-2.30;99.90;;;;;;5071783;28;20453;-69
2021/01/27 08:38:28;;;;;;;2.80;2.30;;;-2.30;99.90;;;;;;5031109;28;20460;-69
2021/01/27 08:40:57;;;;;;;3.83;2.57;;;-2.30;99.90;;;;;;5071144;28;20469;-70
2021/01/27 08:43:28;;;;;;;2.17;1.97;;;-2.30;99.90;;;;;;5070627;28;20811;-69
2021/01/27 08:45:55;;;;;;;2.70;2.50;;;-2.20;99.90;;;;;;5072034;28;20446;-69
2021/01/27 08:48:50;;;;;;;4.00;2.20;;;-2.10;99.90;;;;;;5071547;28;20433;-69
2021/01/27 08:51:41;;;;;;;4.53;2.20;;;-2.10;99.90;;;;;;5024938;28;20426;-69
2021/01/27 08:54:25;;;;;;;1.90;1.80;;;-2.10;99.90;;;;;;5078364;28;20448;-69
2021/01/27 08:57:19;;;;;;;3.03;2.83;;;-2.00;99.90;;;;;;5092015;28;20445;-69
2021/01/27 09:00:09;;;;;;;10.53;2.20;;;-2.00;99.90;;;;;;5084725;28;20450;-69
2021/01/27 09:02:42;;;;;;;2.40;2.20;;;-2.00;99.90;;;;;;5057653;28;20851;-69
2021/01/27 09:05:28;;;;;;;7.80;2.67;;;-2.00;99.90;;;;;;5071286;28;20462;-69
2021/01/27 09:07:56;;;;;;;3.23;2.50;;;-2.00;99.90;;;;;;5050143;28;20442;-69
2021/01/27 09:10:33;;;;;;;3.80;2.13;;;-1.90;99.90;;;;;;5050811;28;20438;-69
2021/01/27 09:13:20;;;;;;;4.20;2.77;;;-1.90;99.90;;;;;;5050548;28;20426;-69
2021/01/27 09:15:53;;;;;;;2.20;2.00;;;-2.00;99.90;;;;;;5051352;28;20484;-69
2021/01/27 09:18:20;;;;;;;3.70;2.60;;;-2.10;99.90;;;;;;5045344;28;20430;-69
2021/01/27 09:20:47;;;;;;;4.17;2.30;;;-2.10;99.90;;;;;;5070742;28;20855;-69
2021/01/27 09:23:18;;;;;;;3.27;2.20;;;-2.20;99.90;;;;;;5070939;28;20857;-70
2021/01/27 09:25:47;;;;;;;3.03;2.70;;;-2.30;99.90;;;;;;5070789;28;20450;-69
2021/01/27 09:28:22;;;;;;;3.30;3.00;;;-2.30;99.90;;;;;;5070282;28;20444;-69
2021/01/27 09:30:49;;;;;;;6.30;3.90;;;-2.30;99.90;;;;;;5070571;28;20426;-69
2021/01/27 09:33:27;;;;;;;4.77;3.80;;;-2.40;99.90;;;;;;5069857;28;20422;-69
2021/01/27 09:36:06;;;;;;;4.83;4.30;;;-2.30;99.90;;;;;;5070465;28;20442;-69
2021/01/27 09:38:33;;;;;;;3.90;3.40;;;-2.30;99.90;;;;;;5070629;28;21003;-69
2021/01/27 09:41:03;;;;;;;5.17;3.40;;;-2.40;99.90;;;;;;5070588;28;20480;-69
2021/01/27 09:43:36;;;;;;;3.80;3.47;;;-2.40;99.90;;;;;;5070032;28;20442;-69
2021/01/27 09:46:18;;;;;;;3.70;3.30;;;-2.50;99.90;;;;;;5070636;28;20442;-70
2021/01/27 09:48:46;;;;;;;5.30;3.70;;;-2.40;99.90;;;;;;5072674;28;20540;-69
2021/01/27 09:51:15;;;;;;;4.73;3.23;;;-2.40;99.90;;;;;;5090053;28;20432;-68
2021/01/27 09:53:44;;;;;;;6.87;4.23;;;-2.30;99.90;;;;;;5089829;28;20468;-69
2021/01/27 09:56:17;;;;;;;4.60;4.20;;;-2.40;99.90;;;;;;5079719;28;20462;-69
2021/01/27 09:58:45;;;;;;;4.17;3.53;;;-2.40;99.90;;;;;;5084494;28;20425;-68
2021/01/27 10:01:18;;;;;;;4.63;4.03;;;-2.30;99.90;;;;;;5090177;28;20472;-68
2021/01/27 10:03:46;;;;;;;5.20;4.70;;;-2.40;99.90;;;;;;5090225;28;20783;-68
2021/01/27 10:06:32;;;;;;;6.33;4.10;;;-2.50;99.90;;;;;;5090511;28;20523;-68
2021/01/27 10:08:59;;;;;;;4.17;3.27;;;-2.30;99.90;;;;;;5089675;28;20969;-68
2021/01/27 10:11:31;;;;;;;5.00;3.87;;;-2.40;99.90;;;;;;5090134;28;21151;-68
2021/01/27 10:14:02;;;;;;;4.33;3.57;;;-2.30;99.90;;;;;;5082676;28;20434;-68
2021/01/27 10:16:29;;;;;;;4.40;4.00;;;-2.40;99.90;;;;;;5070185;28;20422;-68
2021/01/27 10:19:05;;;;;;;4.67;3.83;;;-2.30;99.90;;;;;;5069886;28;20449;-68
2021/01/27 10:21:32;;;;;;;5.17;3.87;;;-2.30;99.90;;;;;;5069966;28;20834;-68
2021/01/27 10:23:59;;;;;;;4.73;4.07;;;-2.40;99.90;;;;;;5069904;28;21287;-68
2021/01/27 10:26:35;;;;;;;3.60;3.30;;;-2.30;99.90;;;;;;5070057;28;20437;-68
2021/01/27 10:29:33;;;;;;;2.87;2.63;;;-2.20;99.90;;;;;;5069637;28;20871;-68
2021/01/27 10:32:22;;;;;;;4.07;3.10;;;-2.20;99.90;;;;;;5053321;28;20442;-68
2021/01/27 10:34:49;;;;;;;3.27;2.90;;;-2.30;99.90;;;;;;5069836;28;20453;-68
2021/01/27 10:37:36;;;;;;;3.90;3.20;;;-2.30;99.90;;;;;;5069514;28;20438;-68
2021/01/27 10:40:23;;;;;;;3.57;3.10;;;-2.30;99.90;;;;;;5070410;28;20953;-68
2021/01/27 10:42:52;;;;;;;3.47;3.17;;;-2.20;99.90;;;;;;5069797;28;20477;-68
2021/01/27 10:45:37;;;;;;;4.17;3.77;;;-2.20;99.90;;;;;;5072541;28;20461;-68
2021/01/27 10:48:13;;;;;;;3.90;2.83;;;-2.40;99.90;;;;;;5073112;28;20434;-69
2021/01/27 10:50:44;;;;;;;3.10;2.80;;;-2.40;99.90;;;;;;5073371;28;20433;-68
2021/01/27 10:53:13;;;;;;;3.93;3.40;;;-2.40;99.90;;;;;;5073531;28;20465;-68
2021/01/27 10:55:42;;;;;;;3.97;3.57;;;-2.30;99.90;;;;;;5073237;28;20457;-68
2021/01/27 10:58:11;;;;;;;3.83;3.40;;;-2.30;99.90;;;;;;5073015;28;20780;-68
2021/01/27 11:00:39;;;;;;;7.70;3.40;;;-2.40;99.90;;;;;;5072906;28;21162;-68
2021/01/27 11:03:07;;;;;;;4.03;3.73;;;-2.40;99.90;;;;;;5073001;28;20961;-68
2021/01/27 11:05:34;;;;;;;3.77;3.00;;;-2.40;99.90;;;;;;5072026;28;20466;-68
2021/01/27 11:08:01;;;;;;;4.90;3.30;;;-2.40;99.90;;;;;;5073167;28;20437;-68
2021/01/27 11:10:28;;;;;;;6.67;4.23;;;-2.40;99.90;;;;;;5072964;28;20475;-68
2021/01/27 11:12:55;;;;;;;4.70;4.17;;;-2.30;99.90;;;;;;5072651;28;20441;-68
2021/01/27 11:15:23;;;;;;;2.17;1.87;;;-2.30;99.90;;;;;;5072904;28;20442;-68
2021/01/27 11:17:51;;;;;;;3.50;3.20;;;-2.30;99.90;;;;;;5072932;28;20426;-69
2021/01/27 11:20:22;;;;;;;3.60;3.30;;;-2.40;99.90;;;;;;5072504;28;20436;-69
2021/01/27 11:22:50;;;;;;;3.43;3.13;;;-2.40;99.90;;;;;;5072248;28;20473;-69
2021/01/27 11:25:17;;;;;;;3.73;3.30;;;-2.30;99.90;;;;;;5072813;28;21016;-69
2021/01/27 11:27:45;;;;;;;3.53;3.23;;;-2.30;99.90;;;;;;5072555;28;20422;-69
2021/01/27 11:30:13;;;;;;;3.27;2.97;;;-2.30;99.90;;;;;;5072420;28;20442;-69
2021/01/27 11:32:40;;;;;;;3.90;3.60;;;-2.20;99.90;;;;;;5072057;28;20430;-69
2021/01/27 11:35:09;;;;;;;3.27;3.07;;;-2.30;99.90;;;;;;5072238;28;20457;-69
2021/01/27 11:37:36;;;;;;;5.07;4.00;;;-2.20;99.90;;;;;;5072603;28;20427;-69
2021/01/27 11:40:03;;;;;;;5.80;3.13;;;-2.10;99.90;;;;;;5072574;28;20513;-68
2021/01/27 11:42:29;;;;;;;3.20;2.90;;;-2.10;99.90;;;;;;5072073;28;20547;-69
2021/01/27 11:44:56;;;;;;;3.33;2.70;;;-2.10;99.90;;;;;;5072417;28;21062;-69
2021/01/27 11:47:23;;;;;;;4.40;2.43;;;-2.00;99.90;;;;;;5072318;28;20430;-69
2021/01/27 11:49:49;;;;;;;2.57;2.37;;;-1.90;99.90;;;;;;5072105;28;20422;-69
2021/01/27 11:52:18;;;;;;;3.97;3.30;;;-2.00;99.90;;;;;;5071953;28;20487;-69
2021/01/27 11:54:44;;;;;;;3.30;3.10;;;-1.90;99.90;;;;;;5072162;28;20450;-69
2021/01/27 11:57:11;;;;;;;7.13;2.50;;;-1.80;99.90;;;;;;5072171;28;20437;-69
2021/01/27 11:59:38;;;;;;;4.83;3.63;;;-1.80;99.90;;;;;;5071919;28;20429;-69
2021/01/27 12:02:06;;;;;;;4.93;3.00;;;-1.80;99.90;;;;;;5071772;28;20484;-69
2021/01/27 12:04:34;;;;;;;3.17;2.97;;;-1.70;99.90;;;;;;5071813;28;20491;-69
2021/01/27 12:07:01;;;;;;;3.10;2.80;;;-1.70;99.90;;;;;;5071993;28;20946;-69
2021/01/27 12:09:29;;;;;;;2.63;2.43;;;-1.50;99.90;;;;;;5071913;28;20422;-69
2021/01/27 12:11:55;;;;;;;6.60;2.87;;;-1.40;99.90;;;;;;5071660;28;20430;-69
2021/01/27 12:14:22;;;;;;;2.70;2.50;;;-1.50;99.90;;;;;;5071606;28;20448;-69
2021/01/27 12:16:49;;;;;;;2.90;2.57;;;-1.60;99.90;;;;;;5071837;28;20442;-69
2021/01/27 12:19:16;;;;;;;2.63;2.43;;;-1.60;99.90;;;;;;5071375;28;20428;-69
2021/01/27 12:21:42;;;;;;;2.70;2.50;;;-1.50;99.90;;;;;;5071591;28;20526;-69
2021/01/27 12:24:10;;;;;;;2.73;2.53;;;-1.40;99.90;;;;;;5071136;28;20439;-69
2021/01/27 12:26:37;;;;;;;5.40;2.33;;;-1.50;99.90;;;;;;5074831;28;20422;-69
2021/01/27 12:29:04;;;;;;;2.33;2.13;;;-1.60;99.90;;;;;;5078955;28;20435;-69
2021/01/27 12:31:31;;;;;;;2.43;2.23;;;-1.50;99.90;;;;;;5085945;28;20493;-69
2021/01/27 12:33:57;;;;;;;4.43;2.50;;;-1.50;99.90;;;;;;5090857;28;20448;-69
2021/01/27 12:36:24;;;;;;;3.00;2.53;;;-1.60;99.90;;;;;;5077243;28;20430;-69
2021/01/27 12:38:51;;;;;;;2.77;2.43;;;-1.60;99.90;;;;;;5070903;28;20911;-69
2021/01/27 12:41:18;;;;;;;3.40;3.17;;;-1.50;99.90;;;;;;5070661;28;20477;-69
2021/01/27 12:43:45;;;;;;;2.60;2.40;;;-1.40;99.90;;;;;;5070059;28;20444;-69
2021/01/27 12:46:12;;;;;;;2.80;2.60;;;-1.50;99.90;;;;;;5071261;28;20430;-69
2021/01/27 12:48:39;;;;;;;3.00;2.73;;;-1.60;99.90;;;;;;5070888;28;20426;-69
2021/01/27 12:51:06;;;;;;;2.83;2.57;;;-1.50;99.90;;;;;;5071122;28;20426;-69
2021/01/27 12:53:33;;;;;;;2.97;2.67;;;-1.50;99.90;;;;;;5070984;28;20475;-69
2021/01/27 12:55:59;;;;;;;2.87;2.63;;;-1.40;99.90;;;;;;5070627;28;20991;-69
2021/01/27 12:58:26;;;;;;;3.63;2.93;;;-1.50;99.90;;;;;;5070649;28;20426;-68
2021/01/27 13:00:54;;;;;;;2.83;2.63;;;-1.50;99.90;;;;;;5070630;28;20426;-69
2021/01/27 13:03:20;;;;;;;3.50;3.10;;;-1.50;99.90;;;;;;5071010;28;20807;-68
2021/01/27 13:05:47;;;;;;;4.63;3.67;;;-1.40;99.90;;;;;;5070889;28;20593;-68
2021/01/27 13:08:14;;;;;;;3.90;3.37;;;-1.50;99.90;;;;;;5070637;28;20430;-69
2021/01/27 13:10:41;;;;;;;4.83;3.67;;;-1.50;99.90;;;;;;5070499;28;20422;-69
2021/01/27 13:13:09;;;;;;;3.43;3.13;;;-1.40;99.90;;;;;;5071049;28;20483;-69
2021/01/27 13:15:36;;;;;;;5.37;2.83;;;-1.50;99.90;;;;;;5070354;28;20860;-69